Terminal Aerodrome Forecast
Issued by NWS

Home | Current Version | Previous Version | Text Only | Print | Product List | Glossary On
Versions: 1 2 3 4 5 6 7 8 9 10 11 12 13 14 15
000
FTUS44 KJAN 171100
TAFHKS
TAF
KHKS 171139Z 1712/1812 14003KT P6SM BKN250
     FM171400 12008KT P6SM BKN100
     FM172000 13009KT P6SM OVC050
     FM180400 13005KT P6SM OVC015=

USA.gov is the U.S. government's official web portal to all federal, state and local government web resources and services.